Jasonville, IN

12:27 AM EDT on September 26, 2016 (GMT -0400)
jasonville | | Change Station

Elev 614 ft 39.21 °N, 87.21 °W | Updated 27 seconds ago

Scattered Clouds
Scattered Clouds
72.9 °F
Feels Like 77 °F
N
0.0
Wind Variable Wind from NNW
Gusts 0.0 mph

Today
High -- | Low -- °F
--% Chance of Precip.
Yesterday
High -- | Low -- °F
Precip. -- in
Pressure 29.97 in
Visibility 10.0 miles
Clouds Few 5000 ft
Few 9000 ft
Scattered Clouds 11000 ft
Heat Index 77 °F
Dew Point 51 °F
Humidity 46%
Rainfall 0.05 in
Snow Depth Not available.
7:40 AM 7:38 PM
Waning Crescent, 22% visible
METAR KHUF 260353Z 19005KT 10SM FEW050 FEW090 SCT110 23/20 A2998 RMK AO2 RAB30E44 SLP147 P0001 T02330200
Pressure 29.97 in
Visibility 10.0 miles
Clouds Few 5000 ft
Few 9000 ft
Scattered Clouds 11000 ft
Heat Index 77 °F
Dew Point 51 °F
Humidity 46%
Rainfall 0.05 in
Snow Depth Not available.
7:40 AM 7:38 PM
Waning Crescent, 22% visible
METAR KHUF 260353Z 19005KT 10SM FEW050 FEW090 SCT110 23/20 A2998 RMK AO2 RAB30E44 SLP147 P0001 T02330200

10-Day Weather Forecast

Almanac

Astronomy

Sep. 26, 2016 Rise Set
Actual Time
Civil Twilight
Nautical Twilight
Astronomical Twilight
Moon
Length of Visible Light
Length of Day
Tomorrow will be .
, % of the Moon is Illuminated

Today's Extremes

State Highs State Lows

Community

WunderPhotos

Upload Photos

1,941,841 photos uploaded!

WunderBlog® & News

Nearby

Air Quality

  Air Quality AQ Index Pollutant
Not available.

Snow Depth

Station Depth Elevation

Earthquake Activity

City Distance Mag. Time & Date
Minimum magnitude displayed is 2.5.

Coastal Water Temperatures

Place Temperature

Stations

Nearby Weather Stations

Station Location Temp. Windchill Dew Point Humidity Wind Precip. Elev Updated Type
                   

Watches & Warnings

There are currently no watches in effect.